M I D A S
Marine Information and Data Acquisition System
Tripno 1617 of the Zeeleeuw from 2008-11-27 08:04:50 to 2008-11-27 16:01:30
Back to CruiseResearch ActivitiesStationsMapUnderway DataData graphs

EquipmentUnitsComment
TimeDGPSUTC
LatitudeDGPSDM.mWGS84
LongitudeDGPSDM.mWGS84
TemperatureSBE03/SBE38deg celciusITS90
ConductivitySBE21S/mITS90
SalinitySBE21 Practical Salinity Units
ChlorophylAChelsea fluorimeterg/lCalibrated in Aceton
Missing or incorrect values are displayed as -999
Sea surface data collected by the RV Zeeleeuw from 2008-11-27 08:00:37 to 2008-11-27 16:17:23
Time Latitude Longitude Temperature Conductivity Salinity ChlorophylA
2008-11-27 08:01:42 51°13.624 2°56.049 -999 0.077917 0.41791 -0.721976
2008-11-27 08:02:42 51°13.624 2°56.049 -999 0.077917 0.417946 -0.721976
2008-11-27 08:03:42 51°13.625 2°56.042 -999 0.077917 0.417981 -0.721976
2008-11-27 08:04:42 51°13.648 2°55.963 -999 0.077917 0.418025 -0.721976
2008-11-27 08:05:42 51°13.684 2°55.857 -999 0.077917 0.418039 -0.721976
2008-11-27 08:06:41 51°13.71 2°55.778 -999 0.077917 0.418082 -0.687152
2008-11-27 08:07:41 51°13.715 2°55.729 -999 0.077917 0.418125 -0.721976
2008-11-27 08:08:39 51°13.713 2°55.706 -999 0.077917 0.418154 -0.721976
2008-11-27 08:09:38 51°13.752 2°55.694 -999 0.077917 0.418248 -0.687152
2008-11-27 08:10:39 51°13.876 2°55.605 -999 0.077917 0.418234 -0.721976
2008-11-27 08:11:38 51°14.003 2°55.508 -999 0.077917 0.418291 -0.721976
2008-11-27 08:12:38 51°14.113 2°55.416 -999 0.077917 0.418327 -0.721976
2008-11-27 08:13:38 51°14.213 2°55.316 -999 2.726267 22.029391 3.178318
2008-11-27 08:14:39 51°14.325 2°55.133 -999 2.752068 25.633459 4.04892
2008-11-27 08:15:39 51°14.451 2°54.925 -999 2.896806 27.322894 3.944447
2008-11-27 08:16:38 51°14.605 2°54.742 -999 3.051211 28.964365 3.526559
2008-11-27 08:17:39 51°14.767 2°54.535 -999 3.120151 29.72065 3.352439
2008-11-27 08:18:39 51°14.922 2°54.325 -999 3.193449 30.496411 3.352439
2008-11-27 08:19:38 51°15.07 2°54.117 -999 3.245323 31.036345 3.700679
2008-11-27 08:20:38 51°15.223 2°53.909 -999 3.267069 31.256884 3.526559
2008-11-27 08:21:39 51°15.381 2°53.703 -999 3.271211 31.302443 3.039022
2008-11-27 08:22:39 51°15.537 2°53.507 -999 3.284673 31.449358 2.830078
2008-11-27 08:23:39 51°15.703 2°53.33 -999 3.290576 31.489549 3.143494
2008-11-27 08:24:39 51°15.873 2°53.16 -999 3.303417 31.617429 3.28279
2008-11-27 08:25:39 51°16.044 2°52.991 -999 3.316776 31.750821 3.247966
2008-11-27 08:26:39 51°16.216 2°52.824 -999 3.313048 31.692878 2.690782
2008-11-27 08:27:39 51°16.384 2°52.654 -999 3.325475 31.772797 2.621133
2008-11-27 08:28:39 51°16.551 2°52.485 -999 3.344323 31.918817 3.561383
2008-11-27 08:29:39 51°16.714 2°52.317 -999 3.340181 31.877487 4.327512
2008-11-27 08:30:39 51°16.872 2°52.145 -999 3.338627 31.8803 4.710577
2008-11-27 08:31:39 51°17.032 2°51.972 -999 3.342977 31.938949 4.849873
2008-11-27 08:32:39 51°17.193 2°51.798 -999 3.338213 31.891834 4.780225
2008-11-27 08:33:39 51°17.352 2°51.62 -999 3.341113 31.923395 4.710577
2008-11-27 08:34:39 51°17.511 2°51.451 -999 3.346188 31.975489 4.362336
2008-11-27 08:35:39 51°17.672 2°51.275 -999 3.346292 31.971543 4.04892
2008-11-27 08:36:39 51°17.831 2°51.095 -999 3.352402 32.034613 4.083744
2008-11-27 08:37:39 51°17.999 2°50.931 -999 3.351677 32.031981 4.04892
2008-11-27 08:38:39 51°18.168 2°50.765 -999 3.351263 32.0318 3.839975
2008-11-27 08:39:39 51°18.339 2°50.606 -999 3.351781 32.037289 3.526559
2008-11-27 08:40:39 51°18.507 2°50.444 -999 3.354266 32.055213 3.039022
2008-11-27 08:41:39 51°18.674 2°50.283 -999 3.357374 32.079716 2.272893
2008-11-27 08:42:39 51°18.848 2°50.139 -999 3.358823 32.09171 1.855004
2008-11-27 08:43:39 51°19.025 2°50.007 -999 3.360377 32.1048 2.272893
2008-11-27 08:44:39 51°19.204 2°49.874 -999 3.364416 32.131571 2.551485
2008-11-27 08:45:39 51°19.383 2°49.738 -999 3.367005 32.142968 2.830078
2008-11-27 08:46:39 51°19.561 2°49.593 -999 3.37063 32.167008 2.969374
2008-11-27 08:47:39 51°19.741 2°49.451 -999 3.378709 32.224658 2.76043
2008-11-27 08:48:39 51°19.922 2°49.309 -999 3.38337 32.262989 2.238069
2008-11-27 08:49:39 51°20.101 2°49.165 -999 3.389791 32.308935 1.855004
2008-11-27 08:50:39 51°20.279 2°49.022 -999 3.393209 32.320551 1.506764
2008-11-27 08:51:39 51°20.457 2°48.879 -999 3.401081 32.375823 1.262995
2008-11-27 08:52:39 51°20.633 2°48.733 -999 3.409264 32.430925 1.123699
2008-11-27 08:53:39 51°20.809 2°48.587 -999 3.425629 32.546851 1.019227
2008-11-27 08:54:39 51°20.985 2°48.445 -999 3.440338 32.630625 1.054051
2008-11-27 08:55:39 51°21.162 2°48.301 -999 3.446035 32.669399 1.402292
2008-11-27 08:56:39 51°21.341 2°48.163 -999 3.452147 32.707405 1.576412
2008-11-27 08:57:39 51°21.521 2°48.026 -999 3.456083 32.717408 1.437116
2008-11-27 08:58:39 51°21.701 2°47.886 -999 3.461988 32.749772 1.437116
2008-11-27 08:59:39 51°21.881 2°47.748 -999 3.471932 32.799059 1.297819
2008-11-27 09:00:39 51°22.061 2°47.612 -999 3.484881 32.833973 1.297819
2008-11-27 09:01:39 51°22.239 2°47.472 -999 3.501353 32.921616 1.228171
2008-11-27 09:02:39 51°22.416 2°47.33 -999 3.509122 32.966379 1.019227
2008-11-27 09:03:39 51°22.59 2°47.19 -999 3.51969 33.047028 0.984403
2008-11-27 09:04:39 51°22.767 2°47.051 -999 3.52601 33.105337 1.054051
2008-11-27 09:05:39 51°22.944 2°46.914 -999 3.527771 33.134755 1.158523
2008-11-27 09:06:39 51°23.122 2°46.778 -999 3.526943 33.134599 1.262995
2008-11-27 09:07:39 51°23.3 2°46.639 -999 3.529429 33.15886 1.158523
2008-11-27 09:08:39 51°23.478 2°46.5 -999 3.531398 33.17431 1.088875
2008-11-27 09:09:39 51°23.656 2°46.36 -999 3.533055 33.180558 0.984403
2008-11-27 09:10:39 51°23.835 2°46.222 -999 3.535853 33.197845 0.810283
2008-11-27 09:11:39 51°24.014 2°46.082 -999 3.541344 33.240676 0.670986
2008-11-27 09:12:39 51°24.195 2°45.962 -999 3.546835 33.28178 0.566514
2008-11-27 09:13:39 51°24.379 2°45.85 -999 3.5573 33.331241 0.670986
2008-11-27 09:14:39 51°24.564 2°45.737 -999 3.564241 33.329498 0.879931
2008-11-27 09:15:39 51°24.747 2°45.628 -999 3.567867 33.330682 0.949579
2008-11-27 09:16:39 51°24.932 2°45.514 -999 3.569214 33.320928 0.949579
2008-11-27 09:17:39 51°25.111 2°45.383 -999 3.574291 33.35497 1.019227
2008-11-27 09:18:39 51°25.286 2°45.241 -999 3.57771 33.370096 1.019227
2008-11-27 09:19:39 51°25.462 2°45.097 -999 3.582269 33.397027 1.019227
2008-11-27 09:20:39 51°25.635 2°44.946 -999 3.586103 33.414724 0.914755
2008-11-27 09:21:39 51°25.809 2°44.798 -999 3.588486 33.412301 0.845107
2008-11-27 09:22:39 51°25.984 2°44.655 -999 3.597294 33.468743 0.70581
2008-11-27 09:23:39 51°26.162 2°44.518 -999 3.605169 33.512921 0.53169
2008-11-27 09:24:39 51°26.34 2°44.384 -999 3.606723 33.497659 0.392394
2008-11-27 09:25:39 51°26.522 2°44.252 -999 3.614702 33.545364 0.322746
2008-11-27 09:26:39 51°26.703 2°44.12 -999 3.621955 33.578751 0.253098
2008-11-27 09:27:39 51°26.885 2°43.984 -999 3.63781 33.650779 0.218274
2008-11-27 09:28:39 51°27.068 2°43.851 -999 3.654079 33.742868 0.218274
2008-11-27 09:29:39 51°27.252 2°43.719 -999 3.664753 33.796699 0.18345
2008-11-27 09:30:39 51°27.437 2°43.588 -999 3.672422 33.828049 0.18345
2008-11-27 09:31:38 51°27.616 2°43.461 -999 3.689108 33.933095 0.113802
2008-11-27 09:32:39 51°27.801 2°43.327 -999 3.701545 33.991032 0.113802
2008-11-27 09:33:39 51°27.985 2°43.199 -999 3.718438 34.089246 0.113802
2008-11-27 09:34:39 51°28.168 2°43.071 -999 3.733882 34.162238 0.148626
2008-11-27 09:35:38 51°28.347 2°42.947 -999 3.736265 34.140931 0.148626
2008-11-27 09:36:38 51°28.527 2°42.822 -999 3.741862 34.192837 0.113802
2008-11-27 09:37:39 51°28.71 2°42.69 -999 3.739582 34.179757 0.148626
2008-11-27 09:38:39 51°28.889 2°42.556 -999 3.739997 34.187356 0.148626
2008-11-27 09:39:38 51°29.068 2°42.433 -999 3.741966 34.188826 0.148626
2008-11-27 09:40:39 51°29.252 2°42.304 -999 3.761349 34.30909 0.18345
2008-11-27 09:41:39 51°29.432 2°42.175 -999 3.773062 34.367211 0.148626
2008-11-27 09:42:39 51°29.613 2°42.046 -999 3.78322 34.399309 0.148626
2008-11-27 09:43:39 51°29.794 2°41.923 -999 3.791098 34.426801 0.148626
2008-11-27 09:44:39 51°29.974 2°41.797 -999 3.799598 34.469801 0.18345
2008-11-27 09:45:39 51°30.156 2°41.678 -999 3.805093 34.49247 0.18345
2008-11-27 09:46:39 51°30.35 2°41.652 -999 3.811623 34.523894 0.148626
2008-11-27 09:47:39 51°30.544 2°41.68 -999 3.81774 34.556146 0.148626
2008-11-27 09:48:39 51°30.735 2°41.728 -999 3.822612 34.573292 0.113802
2008-11-27 09:49:39 51°30.926 2°41.795 -999 3.675313 32.978946 1.855004
2008-11-27 09:50:39 51°31.116 2°41.88 -999 3.798867 34.057232 0.322746
2008-11-27 09:51:39 51°31.306 2°41.967 -999 3.82966 34.48738 0.253098
2008-11-27 09:52:39 51°31.498 2°42.054 -999 3.834118 34.558095 0.218274
2008-11-27 09:53:38 51°31.685 2°42.142 -999 3.837539 34.593317 0.18345
2008-11-27 09:54:39 51°31.875 2°42.247 -999 3.839717 34.617718 0.218274
2008-11-27 09:55:39 51°32.063 2°42.347 -999 3.840339 34.623132 0.18345
2008-11-27 09:56:39 51°32.251 2°42.453 -999 3.841376 34.634394 0.218274
2008-11-27 09:57:39 51°32.436 2°42.558 -999 3.841272 34.638392 0.218274
2008-11-27 09:58:39 51°32.622 2°42.671 -999 3.840235 34.604467 0.148626
2008-11-27 09:59:39 51°32.805 2°42.787 -999 3.840339 34.607187 0.148626
2008-11-27 10:00:38 51°32.987 2°42.895 -999 3.83982 34.624639 0.18345
2008-11-27 10:01:39 51°33.175 2°43.011 -999 3.840754 34.644105 0.18345
2008-11-27 10:02:39 51°33.36 2°43.123 -999 3.841376 34.652043 0.18345
2008-11-27 10:03:39 51°33.545 2°43.243 -999 3.843346 34.668492 0.18345
2008-11-27 10:04:39 51°33.731 2°43.35 -999 3.845212 34.678849 0.148626
2008-11-27 10:05:39 51°33.914 2°43.47 -999 3.846974 34.692366 0.18345
2008-11-27 10:06:39 51°34.1 2°43.587 -999 3.84967 34.708531 0.18345
2008-11-27 10:07:39 51°34.287 2°43.701 -999 3.851536 34.718036 0.218274
2008-11-27 10:08:39 51°34.47 2°43.815 -999 3.853195 34.721246 0.18345
2008-11-27 10:09:38 51°34.653 2°43.935 -999 3.853402 34.727536 0.18345
2008-11-27 10:10:39 51°34.839 2°44.055 -999 3.854024 34.729581 0.18345
2008-11-27 10:11:39 51°35.025 2°44.173 -999 3.854439 34.732907 0.18345
2008-11-27 10:12:39 51°35.213 2°44.287 -999 3.854128 34.730623 0.18345
2008-11-27 10:13:39 51°35.4 2°44.404 -999 3.854128 34.733147 0.18345
2008-11-27 10:14:39 51°35.585 2°44.521 -999 3.854646 34.736674 0.218274
2008-11-27 10:15:39 51°35.771 2°44.645 -999 3.854854 34.738758 0.218274
2008-11-27 10:16:39 51°35.957 2°44.761 -999 3.855061 34.735792 0.18345
2008-11-27 10:17:39 51°36.144 2°44.877 -999 3.855061 34.735792 0.18345
2008-11-27 10:18:38 51°36.325 2°44.999 -999 3.853506 34.721848 0.18345
2008-11-27 10:19:38 51°36.51 2°45.113 -999 3.854128 34.723051 0.218274
2008-11-27 10:20:38 51°36.698 2°45.236 -999 3.853609 34.717002 0.18345
2008-11-27 10:21:39 51°36.886 2°45.365 -999 3.85392 34.711719 0.18345
2008-11-27 10:22:38 51°37.068 2°45.488 -999 3.855372 34.713691 0.218274
2008-11-27 10:23:39 51°37.262 2°45.598 -999 3.857963 34.722909 0.218274
2008-11-27 10:24:38 51°37.448 2°45.71 -999 3.86014 34.721246 0.218274
2008-11-27 10:25:38 51°37.639 2°45.823 -999 3.863976 34.742094 0.18345
2008-11-27 10:26:38 51°37.831 2°45.926 -999 3.86719 34.752497 0.18345
2008-11-27 10:27:38 51°38.02 2°46.035 -999 3.871545 34.775997 0.148626
2008-11-27 10:28:39 51°38.212 2°46.153 -999 3.87227 34.770685 0.148626
2008-11-27 10:29:38 51°38.398 2°46.272 -999 3.87424 34.784543 0.18345
2008-11-27 10:30:39 51°38.59 2°46.39 -999 3.872478 34.768569 0.148626
2008-11-27 10:31:39 51°38.779 2°46.512 -999 3.872685 34.771484 0.18345
2008-11-27 10:32:38 51°38.966 2°46.62 -999 3.868642 34.744399 0.148626
2008-11-27 10:33:39 51°39.159 2°46.731 -999 3.867708 34.740081 0.148626
2008-11-27 10:34:40 51°39.35 2°46.845 -999 3.867294 34.733412 0.18345
2008-11-27 10:35:39 51°39.536 2°46.962 -999 3.865324 34.726248 0.18345
2008-11-27 10:36:39 51°39.728 2°47.081 -999 3.863354 34.712375 0.18345
2008-11-27 10:37:39 51°39.918 2°47.194 -999 3.861591 34.701416 0.18345
2008-11-27 10:38:39 51°40.106 2°47.316 -999 3.860969 34.697695 0.18345
2008-11-27 10:39:39 51°40.298 2°47.438 -999 3.85931 34.682745 0.18345
2008-11-27 10:40:39 51°40.489 2°47.555 -999 3.860347 34.692298 0.18345
2008-11-27 10:41:38 51°40.677 2°47.674 -999 3.859725 34.684389 0.18345
2008-11-27 10:42:39 51°40.873 2°47.789 -999 3.860036 34.683318 0.148626
2008-11-27 10:43:39 51°41.066 2°47.909 -999 3.861073 34.691195 0.18345
2008-11-27 10:44:39 51°41.256 2°48.045 -999 3.860451 34.674916 0.18345
2008-11-27 10:45:39 51°41.397 2°48.289 -999 3.864494 34.700349 0.18345
2008-11-27 10:46:38 51°41.441 2°48.612 -999 3.866982 34.710198 0.18345
2008-11-27 10:47:38 51°41.383 2°48.935 -999 3.868019 34.714719 0.113802
2008-11-27 10:48:38 51°41.294 2°49.24 -999 3.867293 34.712475 0.148626
2008-11-27 10:49:38 51°41.136 2°49.433 -999 3.866671 34.703737 0.148626
2008-11-27 10:50:38 51°40.956 2°49.426 -999 3.864494 34.696164 0.148626
2008-11-27 10:51:39 51°40.777 2°49.334 -999 3.861799 34.684233 0.148626
2008-11-27 10:52:38 51°40.596 2°49.269 -999 3.86014 34.675148 0.18345
2008-11-27 10:53:38 51°40.409 2°49.219 -999 3.858481 34.667735 0.18345
2008-11-27 10:54:38 51°40.223 2°49.166 -999 3.857237 34.661128 0.18345
2008-11-27 10:55:38 51°40.037 2°49.116 -999 3.855889 34.65599 0.18345
2008-11-27 10:56:38 51°39.855 2°49.041 -999 3.85506 34.651025 0.18345
2008-11-27 10:57:38 51°39.674 2°48.966 -999 3.853816 34.649437 0.18345
2008-11-27 10:58:39 51°39.491 2°48.891 -999 3.853608 34.650707 0.18345
2008-11-27 10:59:38 51°39.312 2°48.821 -999 3.85423 34.654432 0.18345
2008-11-27 11:00:39 51°39.126 2°48.748 -999 3.854749 34.662143 0.218274
2008-11-27 11:01:38 51°38.946 2°48.679 -999 3.855993 34.669592 0.18345
2008-11-27 11:02:39 51°38.76 2°48.613 -999 3.857548 34.680995 0.18345
2008-11-27 11:03:39 51°38.581 2°48.535 -999 3.859311 34.693637 0.18345
2008-11-27 11:04:39 51°38.405 2°48.452 -999 3.860762 34.703998 0.18345
2008-11-27 11:05:39 51°38.226 2°48.37 -999 3.862214 34.714356 0.148626
2008-11-27 11:06:39 51°38.049 2°48.291 -999 3.864598 34.728197 0.18345
2008-11-27 11:07:39 51°37.873 2°48.213 -999 3.865428 34.73651 0.18345
2008-11-27 11:08:38 51°37.702 2°48.142 -999 3.865635 34.737749 0.18345
2008-11-27 11:09:38 51°37.529 2°48.066 -999 3.864495 34.737222 0.18345
2008-11-27 11:10:38 51°37.353 2°47.983 -999 3.861695 34.729291 0.218274
2008-11-27 11:11:38 51°37.176 2°47.909 -999 3.858482 34.718874 0.218274
2008-11-27 11:12:38 51°37.003 2°47.835 -999 3.855786 34.712813 0.218274
2008-11-27 11:13:38 51°36.828 2°47.755 -999 3.853713 34.707115 0.218274
2008-11-27 11:14:38 51°36.654 2°47.677 -999 3.85278 34.703626 0.218274
2008-11-27 11:15:39 51°36.477 2°47.6 -999 3.85195 34.700337 0.253098
2008-11-27 11:16:38 51°36.306 2°47.525 -999 3.851432 34.699332 0.253098
2008-11-27 11:17:38 51°36.134 2°47.449 -999 3.850706 34.697924 0.253098
2008-11-27 11:18:38 51°35.963 2°47.373 -999 3.849981 34.695676 0.253098
2008-11-27 11:19:38 51°35.792 2°47.293 -999 3.849255 34.69595 0.218274
2008-11-27 11:20:39 51°35.619 2°47.21 -999 3.84884 34.695145 0.253098
2008-11-27 11:21:39 51°35.448 2°47.132 -999 3.848426 34.696023 0.253098
2008-11-27 11:22:39 51°35.276 2°47.054 -999 3.847596 34.69778 0.218274
2008-11-27 11:23:39 51°35.109 2°46.976 -999 3.847596 34.696939 0.253098
2008-11-27 11:24:38 51°34.942 2°46.896 -999 3.847182 34.698659 0.253098
2008-11-27 11:25:38 51°34.772 2°46.816 -999 3.846456 34.698936 0.253098
2008-11-27 11:26:38 51°34.605 2°46.735 -999 3.846041 34.696448 0.253098
2008-11-27 11:27:39 51°34.435 2°46.656 -999 3.845627 34.694802 0.253098
2008-11-27 11:28:38 51°34.269 2°46.582 -999 3.844486 34.689221 0.218274
2008-11-27 11:29:38 51°34.104 2°46.504 -999 3.843035 34.679668 0.18345
2008-11-27 11:30:38 51°33.937 2°46.427 -999 3.841687 34.670315 0.18345
2008-11-27 11:31:40 51°33.767 2°46.345 -999 3.839199 34.653691 0.148626
2008-11-27 11:32:39 51°33.605 2°46.264 -999 3.837125 34.641236 0.18345
2008-11-27 11:33:39 51°33.44 2°46.185 -999 3.835467 34.629586 0.18345
2008-11-27 11:34:39 51°33.273 2°46.106 -999 3.833497 34.618168 0.18345
2008-11-27 11:35:39 51°33.108 2°46.031 -999 3.832564 34.608774 0.18345
2008-11-27 11:36:39 51°32.943 2°45.95 -999 3.831216 34.602773 0.18345
2008-11-27 11:37:39 51°32.779 2°45.869 -999 3.830076 34.594654 0.18345
2008-11-27 11:38:38 51°32.616 2°45.795 -999 3.828935 34.589056 0.18345
2008-11-27 11:39:39 51°32.448 2°45.714 -999 3.828313 34.584473 0.148626
2008-11-27 11:40:38 51°32.285 2°45.636 -999 3.82821 34.582588 0.148626
2008-11-27 11:41:38 51°32.119 2°45.561 -999 3.827795 34.582616 0.113802
2008-11-27 11:42:38 51°31.957 2°45.485 -999 3.827069 34.577829 0.148626
2008-11-27 11:43:38 51°31.795 2°45.407 -999 3.825411 34.572893 0.148626
2008-11-27 11:44:39 51°31.63 2°45.331 -999 3.823441 34.563979 0.113802
2008-11-27 11:45:40 51°31.464 2°45.25 -999 3.819813 34.548436 0.148626
2008-11-27 11:46:39 51°31.304 2°45.171 -999 3.816184 34.535405 0.113802
2008-11-27 11:47:38 51°31.145 2°45.094 -999 3.811934 34.518611 0.113802
2008-11-27 11:48:39 51°30.982 2°45.02 -999 3.809446 34.506124 0.113802
2008-11-27 11:49:38 51°30.821 2°44.944 -999 3.807891 34.502212 0.148626
2008-11-27 11:50:38 51°30.657 2°44.869 -999 3.807477 34.499708 0.113802
2008-11-27 11:51:38 51°30.495 2°44.789 -999 3.805196 34.490147 0.148626
2008-11-27 11:52:38 51°30.331 2°44.709 -999 3.804782 34.488485 0.113802
2008-11-27 11:53:38 51°30.168 2°44.635 -999 3.806233 34.493039 0.148626
2008-11-27 11:54:40 51°29.999 2°44.559 -999 3.807062 34.498889 0.148626
2008-11-27 11:55:38 51°29.841 2°44.488 -999 3.808306 34.502188 0.113802
2008-11-27 11:56:39 51°29.676 2°44.41 -999 3.807684 34.500118 0.113802
2008-11-27 11:57:38 51°29.517 2°44.329 -999 3.804989 34.488895 0.113802
2008-11-27 11:58:38 51°29.346 2°44.289 -999 3.804056 34.48368 0.148626
2008-11-27 11:59:38 51°29.173 2°44.328 -999 3.80219 34.476618 0.113802
2008-11-27 12:00:38 51°29.033 2°44.533 -999 3.797525 34.456422 0.113802
2008-11-27 12:01:38 51°28.922 2°44.809 -999 3.790891 34.427232 0.113802
2008-11-27 12:02:39 51°28.817 2°45.1 -999 3.783531 34.394868 0.148626
2008-11-27 12:03:40 51°28.714 2°45.387 -999 3.777415 34.366628 0.18345
2008-11-27 12:04:38 51°28.614 2°45.667 -999 3.771611 34.33982 0.218274
2008-11-27 12:05:38 51°28.509 2°45.963 -999 3.769227 34.320694 0.18345
2008-11-27 12:06:38 51°28.404 2°46.26 -999 3.765806 34.29695 0.113802
2008-11-27 12:07:38 51°28.3 2°46.56 -999 3.744557 34.184814 0.113802
2008-11-27 12:08:38 51°28.196 2°46.854 -999 3.728802 34.102053 0.078977
2008-11-27 12:09:38 51°28.092 2°47.149 -999 3.722169 34.07157 0.078977
2008-11-27 12:10:40 51°27.989 2°47.454 -999 3.70341 33.973787 0.078977
2008-11-27 12:11:38 51°27.892 2°47.737 -999 3.685169 33.869982 0.078977
2008-11-27 12:12:40 51°27.787 2°48.041 -999 3.663406 33.760075 0.113802
2008-11-27 12:13:38 51°27.69 2°48.325 -999 3.654079 33.712461 0.148626
2008-11-27 12:14:38 51°27.588 2°48.617 -999 3.645996 33.678382 0.18345
2008-11-27 12:15:38 51°27.485 2°48.909 -999 3.641126 33.654482 0.18345
2008-11-27 12:16:39 51°27.38 2°49.207 -999 3.635115 33.631498 0.322746
2008-11-27 12:17:39 51°27.277 2°49.504 -999 3.627965 33.602654 0.35757
2008-11-27 12:18:39 51°27.175 2°49.801 -999 3.618846 33.56868 0.462042
2008-11-27 12:19:40 51°27.072 2°50.1 -999 3.613044 33.540942 0.601338
2008-11-27 12:20:39 51°26.97 2°50.386 -999 3.608588 33.525395 0.810283
2008-11-27 12:21:40 51°26.863 2°50.683 -999 3.605169 33.515463 0.879931
2008-11-27 12:22:39 51°26.76 2°50.973 -999 3.603925 33.512774 0.879931
2008-11-27 12:23:39 51°26.651 2°51.267 -999 3.600817 33.500113 0.879931
2008-11-27 12:24:39 51°26.545 2°51.562 -999 3.599055 33.49121 0.775459
2008-11-27 12:25:39 51°26.44 2°51.857 -999 3.596879 33.484797 0.775459
2008-11-27 12:26:39 51°26.337 2°52.154 -999 3.59346 33.46635 0.810283
2008-11-27 12:27:39 51°26.232 2°52.451 -999 3.590248 33.451735 0.775459
2008-11-27 12:28:39 51°26.127 2°52.743 -999 3.587761 33.434447 0.70581
2008-11-27 12:29:39 51°26.023 2°53.038 -999 3.579369 33.418699 0.70581
2008-11-27 12:30:40 51°25.917 2°53.336 -999 3.565278 33.364928 0.70581
2008-11-27 12:31:39 51°25.815 2°53.624 -999 3.553362 33.303845 0.740634
2008-11-27 12:32:39 51°25.711 2°53.916 -999 3.541344 33.24323 0.740634
2008-11-27 12:33:38 51°25.61 2°54.206 -999 3.53347 33.201053 0.670986
2008-11-27 12:34:38 51°25.505 2°54.495 -999 3.527875 33.173261 0.70581
2008-11-27 12:35:38 51°25.403 2°54.784 -999 3.528912 33.181533 0.914755
2008-11-27 12:36:38 51°25.296 2°55.071 -999 3.527772 33.181549 1.019227
2008-11-27 12:37:40 51°25.189 2°55.365 -999 3.527565 33.178531 1.123699
2008-11-27 12:38:38 51°25.092 2°55.648 -999 3.523421 33.162467 1.262995
2008-11-27 12:39:40 51°24.988 2°55.957 -999 3.517205 33.121294 1.019227
2008-11-27 12:40:38 51°24.891 2°56.244 -999 3.509849 33.064746 0.845107
2008-11-27 12:41:38 51°24.789 2°56.54 -999 3.503529 33.001153 1.123699
2008-11-27 12:42:39 51°24.688 2°56.841 -999 3.495241 32.958551 1.576412
2008-11-27 12:43:38 51°24.587 2°57.124 -999 3.487679 32.909884 1.785356
2008-11-27 12:44:38 51°24.483 2°57.409 -999 3.482188 32.887134 1.82018
2008-11-27 12:45:38 51°24.407 2°57.714 -999 3.477216 32.864692 1.82018
2008-11-27 12:46:38 51°24.404 2°58.066 -999 3.473797 32.848345 1.855004
2008-11-27 12:47:38 51°24.361 2°58.4 -999 3.471104 32.836203 1.855004
2008-11-27 12:48:39 51°24.275 2°58.708 -999 3.466961 32.820714 1.959476
2008-11-27 12:49:38 51°24.168 2°58.976 -999 3.464164 32.804062 1.9943
2008-11-27 12:50:38 51°24.053 2°59.245 -999 3.458881 32.783357 2.063949
2008-11-27 12:51:39 51°23.938 2°59.522 -999 3.455255 32.758804 2.203245
2008-11-27 12:52:38 51°23.828 2°59.793 -999 3.449868 32.723345 2.238069
2008-11-27 12:53:38 51°23.717 3°0.074 -999 3.44241 32.674524 2.203245
2008-11-27 12:54:38 51°23.607 3°0.359 -999 3.436299 32.6271 1.9943
2008-11-27 12:55:38 51°23.493 3°0.638 -999 3.429773 32.583762 1.924652
2008-11-27 12:56:38 51°23.38 3°0.918 -999 3.425733 32.558123 2.168421
2008-11-27 12:57:38 51°23.268 3°1.199 -999 3.42045 32.511718 2.203245
2008-11-27 12:58:39 51°23.153 3°1.48 -999 3.418068 32.493361 2.307717
2008-11-27 12:59:38 51°23.043 3°1.754 -999 3.414339 32.457404 2.412189
2008-11-27 13:00:38 51°22.929 3°2.03 -999 3.409678 32.414148 2.551485
2008-11-27 13:01:38 51°22.818 3°2.305 -999 3.404706 32.369297 2.795254
2008-11-27 13:02:38 51°22.731 3°2.607 -999 3.399941 32.334218 3.039022
2008-11-27 13:03:38 51°22.593 3°2.823 -999 3.402116 32.331856 3.213142
2008-11-27 13:04:38 51°22.433 3°3 -999 3.398388 32.316135 3.317614
2008-11-27 13:05:38 51°22.272 3°3.178 -999 3.401391 32.346989 3.317614
2008-11-27 13:06:39 51°22.105 3°3.353 -999 3.408953 32.415799 3.526559
2008-11-27 13:07:38 51°21.945 3°3.53 -999 3.409471 32.422111 4.153392
2008-11-27 13:08:39 51°21.779 3°3.713 -999 3.410196 32.432302 4.466808
2008-11-27 13:09:38 51°21.619 3°3.89 -999 3.406674 32.39936 4.39716
2008-11-27 13:10:38 51°21.454 3°4.063 -999 3.399941 32.343505 4.257864
2008-11-27 13:11:38 51°21.29 3°4.235 -999 3.385751 32.213945 4.153392
2008-11-27 13:12:38 51°21.177 3°4.451 -999 3.367626 32.053674 4.431984
2008-11-27 13:13:38 51°21.115 3°4.697 -999 3.349915 31.883443 4.118568
2008-11-27 13:14:39 51°21.077 3°4.961 -999 3.337383 31.756197 4.014096
2008-11-27 13:15:40 51°21.093 3°5.24 -999 3.332309 31.730067 4.606104
2008-11-27 13:16:38 51°21.114 3°5.501 -999 3.333344 31.738506 4.466808
2008-11-27 13:17:39 51°21.136 3°5.777 -999 3.333759 31.741217 4.153392
2008-11-27 13:18:38 51°21.157 3°6.042 -999 3.333552 31.763158 4.640929
2008-11-27 13:19:38 51°21.179 3°6.3 -999 3.330963 31.756619 4.954345
2008-11-27 13:20:38 51°21.195 3°6.528 -999 3.330445 31.742819 5.163289
2008-11-27 13:21:39 51°21.216 3°6.772 -999 3.332412 31.738643 5.267761
2008-11-27 13:22:38 51°21.232 3°7.003 -999 3.331895 31.734006 5.372234
2008-11-27 13:23:40 51°21.252 3°7.243 -999 3.329099 31.728592 5.824946
2008-11-27 13:24:38 51°21.273 3°7.467 -999 3.32537 31.70583 5.85977
2008-11-27 13:25:40 51°21.303 3°7.706 -999 3.325681 31.71827 5.824946
2008-11-27 13:26:38 51°21.33 3°7.931 -999 3.323713 31.695801 5.790122
2008-11-27 13:27:40 51°21.362 3°8.171 -999 3.321849 31.671937 5.824946
2008-11-27 13:28:38 51°21.392 3°8.395 -999 3.321745 31.655059 5.68565
2008-11-27 13:29:38 51°21.422 3°8.627 -999 3.322367 31.647513 5.546354
2008-11-27 13:30:39 51°21.455 3°8.861 -999 3.323506 31.644611 5.51153
2008-11-27 13:31:39 51°21.489 3°9.092 -999 3.325059 31.650228 5.441882
2008-11-27 13:32:39 51°21.523 3°9.322 -999 3.326612 31.656672 5.093641
2008-11-27 13:33:39 51°21.579 3°9.542 -999 3.327648 31.668428 4.780225
2008-11-27 13:34:38 51°21.727 3°9.611 -999 3.330134 31.686357 4.188216
2008-11-27 13:35:38 51°21.819 3°9.452 -999 3.333551 31.707473 4.04892
2008-11-27 13:36:39 51°21.762 3°9.225 -999 3.332723 31.706202 4.745401
2008-11-27 13:37:39 51°21.696 3°9.016 -999 3.332101 31.710436 4.989169
2008-11-27 13:38:38 51°21.637 3°8.825 -999 3.332101 31.714588 4.989169
2008-11-27 13:39:39 51°21.577 3°8.633 -999 3.327545 31.683928 4.989169
2008-11-27 13:40:39 51°21.517 3°8.444 -999 3.324956 31.661575 4.989169
2008-11-27 13:41:39 51°21.459 3°8.258 -999 3.322677 31.646646 5.302586
2008-11-27 13:42:38 51°21.409 3°8.094 -999 3.321227 31.635484 5.267761
2008-11-27 13:43:39 51°21.354 3°7.918 -999 3.319053 31.628274 5.51153
2008-11-27 13:44:38 51°21.304 3°7.751 -999 3.317914 31.625365 5.720474
2008-11-27 13:45:39 51°21.257 3°7.578 -999 3.317396 31.620724 5.85977
2008-11-27 13:46:39 51°21.218 3°7.432 -999 3.318017 31.640573 5.85977
2008-11-27 13:47:39 51°21.181 3°7.286 -999 3.3175 31.661698 5.894594
2008-11-27 13:48:39 51°21.147 3°7.131 -999 3.316982 31.682027 5.441882
2008-11-27 13:49:38 51°21.114 3°6.978 -999 3.317811 31.694968 5.302586
2008-11-27 13:50:39 51°21.088 3°6.843 -999 3.317708 31.70221 4.954345
2008-11-27 13:51:39 51°21.065 3°6.717 -999 3.316776 31.709858 4.989169
2008-11-27 13:52:39 51°21.04 3°6.59 -999 3.316776 31.716538 4.849873
2008-11-27 13:53:39 51°21.016 3°6.463 -999 3.316465 31.725777 4.640929
2008-11-27 13:54:38 51°20.992 3°6.34 -999 3.317604 31.736186 4.39716
2008-11-27 13:55:39 51°20.97 3°6.213 -999 3.318122 31.743349 4.153392
2008-11-27 13:56:38 51°20.948 3°6.091 -999 3.318847 31.753548 4.04892
2008-11-27 13:57:39 51°20.93 3°5.962 -999 3.319365 31.76155 3.979271
2008-11-27 13:58:38 51°20.911 3°5.839 -999 3.320194 31.771176 3.874799
2008-11-27 13:59:39 51°20.89 3°5.712 -999 3.320504 31.772798 3.735503
2008-11-27 14:00:40 51°20.87 3°5.581 -999 3.320297 31.764742 3.944447
2008-11-27 14:01:40 51°20.851 3°5.454 -999 3.320608 31.761343 4.118568
2008-11-27 14:02:40 51°20.845 3°5.38 -999 3.320918 31.764638 4.188216
2008-11-27 14:03:40 51°20.863 3°5.331 -999 3.321747 31.77175 4.153392
2008-11-27 14:04:39 51°20.931 3°5.32 -999 3.323507 31.775356 4.118568
2008-11-27 14:05:39 51°20.981 3°5.41 -999 3.324647 31.798313 3.909623
2008-11-27 14:06:39 51°21.008 3°5.495 -999 3.324543 31.80559 3.839975
2008-11-27 14:07:39 51°21.015 3°5.585 -999 3.325268 31.800715 3.874799
2008-11-27 14:08:39 51°21.009 3°5.667 -999 3.325889 31.799769 3.839975
2008-11-27 14:09:39 51°20.986 3°5.726 -999 3.32475 31.790203 3.874799
2008-11-27 14:10:39 51°20.944 3°5.745 -999 3.323404 31.779278 3.909623
2008-11-27 14:11:39 51°20.9 3°5.763 -999 3.322575 31.773004 3.979271
2008-11-27 14:12:39 51°20.858 3°5.779 -999 3.322265 31.770547 3.944447
2008-11-27 14:13:39 51°20.82 3°5.823 -999 3.323611 31.784821 3.735503
2008-11-27 14:14:39 51°20.799 3°5.891 -999 3.3233 31.790735 3.805151
2008-11-27 14:15:39 51°20.796 3°5.957 -999 3.323093 31.792725 3.770327
2008-11-27 14:16:39 51°20.805 3°6.037 -999 3.32299 31.789114 3.735503
2008-11-27 14:17:39 51°20.819 3°6.118 -999 3.321333 31.778237 3.735503
2008-11-27 14:18:39 51°20.832 3°6.191 -999 3.319572 31.763748 3.735503
2008-11-27 14:19:39 51°20.848 3°6.261 -999 3.318537 31.750252 3.770327
2008-11-27 14:20:39 51°20.866 3°6.329 -999 3.316465 31.736647 3.805151
2008-11-27 14:21:39 51°20.886 3°6.396 -999 3.315223 31.727644 3.770327
2008-11-27 14:22:39 51°20.908 3°6.463 -999 3.315533 31.724251 3.805151
2008-11-27 14:23:39 51°20.934 3°6.53 -999 3.314912 31.718496 3.770327
2008-11-27 14:24:39 51°20.962 3°6.596 -999 3.314187 31.71415 3.735503
2008-11-27 14:25:39 51°20.991 3°6.664 -999 3.313566 31.710066 3.700679
2008-11-27 14:26:39 51°21.019 3°6.734 -999 3.313462 31.707296 3.596207
2008-11-27 14:27:39 51°21.045 3°6.805 -999 3.312944 31.703474 3.491735
2008-11-27 14:28:39 51°21.073 3°6.876 -999 3.31253 31.699916 3.491735
2008-11-27 14:29:39 51°21.099 3°6.948 -999 3.312116 31.694686 3.491735
2008-11-27 14:30:39 51°21.123 3°7.02 -999 3.311598 31.687523 3.665855
2008-11-27 14:31:39 51°21.146 3°7.096 -999 3.311391 31.681986 3.805151
2008-11-27 14:32:39 51°21.168 3°7.171 -999 3.31108 31.677856 3.944447
2008-11-27 14:33:39 51°21.189 3°7.245 -999 3.311184 31.67645 3.979271
2008-11-27 14:34:39 51°21.209 3°7.317 -999 3.311908 31.676625 3.944447
2008-11-27 14:35:39 51°21.23 3°7.388 -999 3.311494 31.673068 3.909623
2008-11-27 14:36:39 51°21.252 3°7.458 -999 3.311908 31.673288 3.874799
2008-11-27 14:37:39 51°21.272 3°7.527 -999 3.312012 31.671883 3.874799
2008-11-27 14:38:40 51°21.292 3°7.596 -999 3.313255 31.673377 3.839975
2008-11-27 14:39:39 51°21.31 3°7.662 -999 3.312633 31.670128 3.839975
2008-11-27 14:40:40 51°21.328 3°7.731 -999 3.313151 31.668945 3.839975
2008-11-27 14:41:39 51°21.344 3°7.797 -999 3.313254 31.665041 3.805151
2008-11-27 14:42:39 51°21.353 3°7.852 -999 3.313462 31.663068 3.909623
2008-11-27 14:43:39 51°21.366 3°7.892 -999 3.313047 31.660347 4.014096
2008-11-27 14:44:39 51°21.38 3°7.927 -999 3.312737 31.658722 3.909623
2008-11-27 14:45:39 51°21.396 3°7.956 -999 3.31139 31.656125 3.944447
2008-11-27 14:46:39 51°21.412 3°7.98 -999 3.31139 31.653625 4.014096
2008-11-27 14:47:39 51°21.43 3°8.001 -999 3.31108 31.651999 3.909623
2008-11-27 14:48:40 51°21.45 3°8.021 -999 3.311805 31.653014 3.909623
2008-11-27 14:49:40 51°21.459 3°8.056 -999 3.310873 31.651471 3.874799
2008-11-27 14:50:39 51°21.425 3°8.085 -999 3.312944 31.654251 3.944447
2008-11-27 14:51:40 51°21.412 3°8.021 -999 3.311183 31.648097 4.188216
2008-11-27 14:52:39 51°21.432 3°8 -999 3.305902 31.627117 4.292688
2008-11-27 14:53:39 51°21.453 3°8.002 -999 3.30497 31.623068 4.327512
2008-11-27 14:54:40 51°21.475 3°8.002 -999 3.305384 31.626627 4.188216
2008-11-27 14:55:39 51°21.469 3°7.949 -999 3.304867 31.626138 4.118568
2008-11-27 14:56:40 51°21.437 3°7.959 -999 3.306938 31.631429 4.362336
2008-11-27 14:57:39 51°21.448 3°7.981 -999 3.308698 31.638424 4.22304
2008-11-27 14:58:39 51°21.464 3°8.003 -999 3.308491 31.639562 4.188216
2008-11-27 14:59:39 51°21.48 3°8.023 -999 3.30818 31.639603 4.153392
2008-11-27 15:00:39 51°21.489 3°8.061 -999 3.308491 31.639562 4.153392
2008-11-27 15:01:40 51°21.432 3°8.059 -999 3.315947 31.649422 4.153392
2008-11-27 15:02:39 51°21.364 3°7.893 -999 3.305799 31.628519 4.188216
2008-11-27 15:03:40 51°21.266 3°7.656 -999 3.303935 31.61792 4.257864
2008-11-27 15:04:39 51°21.164 3°7.412 -999 3.305695 31.63159 4.118568
2008-11-27 15:05:40 51°21.056 3°7.16 -999 3.306627 31.640641 3.631031
2008-11-27 15:06:39 51°20.946 3°6.922 -999 3.306316 31.639014 3.665855
2008-11-27 15:07:39 51°20.835 3°6.681 -999 3.305799 31.634356 3.456911
2008-11-27 15:08:40 51°20.73 3°6.424 -999 3.303935 31.627093 3.317614
2008-11-27 15:09:39 51°20.629 3°6.175 -999 3.303313 31.623002 3.178318
2008-11-27 15:10:40 51°20.523 3°5.918 -999 3.30321 31.622738 3.073846
2008-11-27 15:11:39 51°20.413 3°5.678 -999 3.30321 31.629413 3.039022
2008-11-27 15:12:40 51°20.3 3°5.425 -999 3.305695 31.652452 3.10867
2008-11-27 15:13:39 51°20.192 3°5.184 -999 3.308595 31.677379 3.178318
2008-11-27 15:14:40 51°20.08 3°4.932 -999 3.31253 31.712455 3.10867
2008-11-27 15:15:39 51°19.977 3°4.675 -999 3.316776 31.74831 3.456911
2008-11-27 15:16:39 51°19.872 3°4.415 -999 3.325786 31.826317 3.10867
2008-11-27 15:17:40 51°19.763 3°4.151 -999 3.336453 31.919337 2.969374
2008-11-27 15:18:39 51°19.656 3°3.897 -999 3.339767 31.949449 2.93455
2008-11-27 15:19:40 51°19.545 3°3.634 -999 3.340078 31.953586 2.93455
2008-11-27 15:20:39 51°19.433 3°3.386 -999 3.339457 31.949518 2.969374
2008-11-27 15:21:40 51°19.317 3°3.136 -999 3.336971 31.929034 2.899726
2008-11-27 15:22:39 51°19.206 3°2.889 -999 3.331482 31.885919 2.725606
2008-11-27 15:23:40 51°19.097 3°2.626 -999 3.325579 31.843417 2.725606
2008-11-27 15:24:39 51°18.992 3°2.371 -999 3.322679 31.817668 2.725606
2008-11-27 15:25:39 51°18.877 3°2.12 -999 3.319883 31.792176 2.969374
2008-11-27 15:26:39 51°18.76 3°1.871 -999 3.318433 31.781813 3.143494
2008-11-27 15:27:39 51°18.643 3°1.622 -999 3.31688 31.773702 3.247966
2008-11-27 15:28:40 51°18.525 3°1.369 -999 3.317708 31.780823 3.317614
2008-11-27 15:29:39 51°18.409 3°1.126 -999 3.319573 31.798103 3.526559
2008-11-27 15:30:40 51°18.286 3°0.883 -999 3.320815 31.805427 3.665855
2008-11-27 15:31:39 51°18.163 3°0.656 -999 3.321954 31.81165 3.665855
2008-11-27 15:32:40 51°18.04 3°0.42 -999 3.319883 31.787146 3.317614
2008-11-27 15:33:39 51°17.927 3°0.184 -999 3.311391 31.714584 3.039022
2008-11-27 15:34:39 51°17.81 2°59.945 -999 3.304142 31.650996 2.795254
2008-11-27 15:35:39 51°17.699 2°59.698 -999 3.298861 31.604103 2.655957
2008-11-27 15:36:39 51°17.592 2°59.444 -999 3.293993 31.564929 2.586309
2008-11-27 15:37:40 51°17.485 2°59.179 -999 3.291715 31.544902 2.551485
2008-11-27 15:38:39 51°17.38 2°58.922 -999 3.290369 31.532271 2.516661
2008-11-27 15:39:40 51°17.268 2°58.658 -999 3.288401 31.515539 2.551485
2008-11-27 15:40:39 51°17.156 2°58.406 -999 3.288091 31.511407 2.516661
2008-11-27 15:41:40 51°17.042 2°58.143 -999 3.28633 31.494376 2.586309
2008-11-27 15:42:39 51°16.93 2°57.89 -999 3.28633 31.497705 2.93455
2008-11-27 15:43:39 51°16.81 2°57.64 -999 3.285709 31.491938 3.178318
2008-11-27 15:44:39 51°16.696 2°57.382 -999 3.285605 31.491671 3.422087
2008-11-27 15:45:39 51°16.583 2°57.119 -999 3.287573 31.507573 3.665855
2008-11-27 15:46:39 51°16.472 2°56.859 -999 3.291715 31.545735 3.700679
2008-11-27 15:47:39 51°16.363 2°56.603 -999 3.296686 31.587685 3.631031
2008-11-27 15:48:40 51°16.25 2°56.345 -999 3.295236 31.570622 3.387263
2008-11-27 15:49:39 51°16.137 2°56.103 -999 3.297721 31.59451 3.039022
2008-11-27 15:50:40 51°16.017 2°55.851 -999 3.29534 31.565886 2.899726
2008-11-27 15:51:39 51°15.903 2°55.607 -999 3.298343 31.596102 2.864902
2008-11-27 15:52:40 51°15.787 2°55.356 -999 3.28778 31.483984 2.795254
2008-11-27 15:53:39 51°15.663 2°55.132 -999 3.27235 31.331058 2.690782
2008-11-27 15:54:40 51°15.513 2°54.95 -999 3.268415 31.283537 2.76043
2008-11-27 15:55:39 51°15.344 2°54.823 -999 3.26738 31.271731 2.621133
2008-11-27 15:56:40 51°15.157 2°54.739 -999 3.257025 31.177599 2.447013
2008-11-27 15:57:39 51°14.974 2°54.659 -999 3.249673 31.112805 2.377365
2008-11-27 15:58:39 51°14.781 2°54.612 -999 3.250087 31.117198 2.342541
2008-11-27 15:59:40 51°14.591 2°54.693 -999 3.246152 31.086976 2.307717
2008-11-27 16:00:39 51°14.439 2°54.879 -999 3.255368 31.178976 2.307717
2008-11-27 16:01:40 51°14.317 2°55.137 -999 3.237869 31.008967 2.447013
2008-11-27 16:02:39 51°14.234 2°55.288 -999 3.226893 30.905665 3.039022
2008-11-27 16:03:44 51°14.172 2°55.368 -999 0.085948 0.640117 -0.965744
2008-11-27 16:04:43 51°14.121 2°55.408 -999 0.375616 2.632761 -0.93092
2008-11-27 16:05:43 51°14.076 2°55.443 -999 0.085844 0.567661 -0.861272
2008-11-27 16:06:43 51°14.047 2°55.468 -999 0.096033 0.638645 -0.896096
2008-11-27 16:07:43 51°14.03 2°55.49 -999 0.089549 0.59433 -0.93092
2008-11-27 16:08:43 51°14.016 2°55.507 -999 0.081727 0.541987 -0.965744
2008-11-27 16:09:43 51°13.991 2°55.527 -999 0.076067 0.502216 -1.000568
2008-11-27 16:10:43 51°13.907 2°55.584 -999 0.072053 0.474853 -1.000568
2008-11-27 16:11:43 51°13.825 2°55.642 -999 0.068966 0.454446 -1.000568
2008-11-27 16:12:43 51°13.749 2°55.71 -999 0.066702 0.438369 -1.000568
2008-11-27 16:13:44 51°13.695 2°55.813 -999 0.064541 0.423731 -1.000568
2008-11-27 16:14:43 51°13.66 2°55.903 -999 0.062997 0.413119 -1.035392
2008-11-27 16:15:43 51°13.636 2°55.992 -999 0.061659 0.403869 -1.035392
2008-11-27 16:16:43 51°13.625 2°56.041 -999 0.060733 0.397376 -1.035392